sensor_id;sensor_type;location;lat;lon;timestamp;P1;durP1;ratioP1;P2;durP2;ratioP2
41719;SDS011;27405;53.316;-6.294;2023-05-29T00:00:36;22.08;;;4.50;;
41719;SDS011;27405;53.316;-6.294;2023-05-29T00:03:02;19.10;;;4.43;;
41719;SDS011;27405;53.316;-6.294;2023-05-29T00:05:30;26.10;;;5.75;;
41719;SDS011;27405;53.316;-6.294;2023-05-29T00:07:55;24.30;;;6.63;;
41719;SDS011;27405;53.316;-6.294;2023-05-29T00:10:21;31.30;;;10.13;;
41719;SDS011;27405;53.316;-6.294;2023-05-29T00:12:47;22.30;;;5.20;;
41719;SDS011;27405;53.316;-6.294;2023-05-29T00:15:12;22.65;;;4.47;;
41719;SDS011;27405;53.316;-6.294;2023-05-29T00:17:38;27.95;;;4.30;;
41719;SDS011;27405;53.316;-6.294;2023-05-29T00:20:05;22.63;;;4.30;;
41719;SDS011;27405;53.316;-6.294;2023-05-29T00:22:34;26.00;;;4.32;;
41719;SDS011;27405;53.316;-6.294;2023-05-29T00:25:02;23.92;;;4.43;;
41719;SDS011;27405;53.316;-6.294;2023-05-29T00:27:30;18.77;;;3.90;;
41719;SDS011;27405;53.316;-6.294;2023-05-29T00:29:57;22.60;;;4.13;;
41719;SDS011;27405;53.316;-6.294;2023-05-29T00:32:25;26.23;;;4.63;;
41719;SDS011;27405;53.316;-6.294;2023-05-29T00:34:50;20.83;;;4.00;;
41719;SDS011;27405;53.316;-6.294;2023-05-29T00:37:16;21.02;;;4.07;;
41719;SDS011;27405;53.316;-6.294;2023-05-29T00:39:42;20.45;;;4.32;;
41719;SDS011;27405;53.316;-6.294;2023-05-29T00:42:08;25.13;;;5.15;;
41719;SDS011;27405;53.316;-6.294;2023-05-29T00:44:34;21.30;;;4.03;;
41719;SDS011;27405;53.316;-6.294;2023-05-29T00:47:01;21.10;;;4.57;;
41719;SDS011;27405;53.316;-6.294;2023-05-29T00:49:27;24.33;;;5.03;;
41719;SDS011;27405;53.316;-6.294;2023-05-29T00:51:53;19.58;;;4.03;;
41719;SDS011;27405;53.316;-6.294;2023-05-29T00:54:21;19.17;;;4.15;;
41719;SDS011;27405;53.316;-6.294;2023-05-29T00:56:53;24.13;;;4.28;;
41719;SDS011;27405;53.316;-6.294;2023-05-29T00:59:20;21.23;;;3.90;;
41719;SDS011;27405;53.316;-6.294;2023-05-29T01:01:48;24.40;;;4.82;;
41719;SDS011;27405;53.316;-6.294;2023-05-29T01:04:15;19.63;;;3.83;;
41719;SDS011;27405;53.316;-6.294;2023-05-29T01:06:41;20.98;;;4.38;;
41719;SDS011;27405;53.316;-6.294;2023-05-29T01:09:07;21.10;;;5.00;;
41719;SDS011;27405;53.316;-6.294;2023-05-29T01:14:08;20.85;;;4.40;;
41719;SDS011;27405;53.316;-6.294;2023-05-29T01:16:48;23.92;;;4.70;;
41719;SDS011;27405;53.316;-6.294;2023-05-29T01:25:11;21.45;;;4.10;;
41719;SDS011;27405;53.316;-6.294;2023-05-29T01:27:44;26.27;;;4.75;;
41719;SDS011;27405;53.316;-6.294;2023-05-29T01:30:12;26.60;;;4.78;;
41719;SDS011;27405;53.316;-6.294;2023-05-29T01:32:39;21.63;;;4.43;;
41719;SDS011;27405;53.316;-6.294;2023-05-29T01:35:06;23.25;;;4.88;;
41719;SDS011;27405;53.316;-6.294;2023-05-29T01:37:32;26.23;;;4.60;;
41719;SDS011;27405;53.316;-6.294;2023-05-29T01:39:58;30.02;;;4.55;;
41719;SDS011;27405;53.316;-6.294;2023-05-29T01:42:25;22.63;;;4.35;;
41719;SDS011;27405;53.316;-6.294;2023-05-29T01:44:53;28.90;;;4.70;;
41719;SDS011;27405;53.316;-6.294;2023-05-29T01:47:20;23.48;;;4.75;;
41719;SDS011;27405;53.316;-6.294;2023-05-29T01:49:47;23.83;;;4.40;;
41719;SDS011;27405;53.316;-6.294;2023-05-29T01:52:15;20.13;;;4.00;;
41719;SDS011;27405;53.316;-6.294;2023-05-29T01:54:40;25.52;;;4.47;;
41719;SDS011;27405;53.316;-6.294;2023-05-29T01:57:06;23.98;;;3.95;;
41719;SDS011;27405;53.316;-6.294;2023-05-29T01:59:32;25.80;;;4.68;;
41719;SDS011;27405;53.316;-6.294;2023-05-29T02:02:09;25.05;;;4.05;;
41719;SDS011;27405;53.316;-6.294;2023-05-29T02:04:36;26.10;;;4.28;;
41719;SDS011;27405;53.316;-6.294;2023-05-29T02:07:03;20.23;;;4.13;;
41719;SDS011;27405;53.316;-6.294;2023-05-29T02:09:30;27.25;;;4.85;;
41719;SDS011;27405;53.316;-6.294;2023-05-29T02:11:56;27.75;;;5.18;;
41719;SDS011;27405;53.316;-6.294;2023-05-29T02:14:21;22.30;;;4.40;;
41719;SDS011;27405;53.316;-6.294;2023-05-29T02:16:49;22.10;;;4.85;;
41719;SDS011;27405;53.316;-6.294;2023-05-29T02:19:17;20.52;;;4.32;;
41719;SDS011;27405;53.316;-6.294;2023-05-29T02:21:54;25.00;;;4.45;;
41719;SDS011;27405;53.316;-6.294;2023-05-29T02:24:20;25.10;;;5.72;;
41719;SDS011;27405;53.316;-6.294;2023-05-29T02:26:47;26.58;;;4.75;;
41719;SDS011;27405;53.316;-6.294;2023-05-29T02:29:15;22.48;;;4.60;;
41719;SDS011;27405;53.316;-6.294;2023-05-29T02:31:44;27.08;;;4.35;;
41719;SDS011;27405;53.316;-6.294;2023-05-29T02:34:10;27.27;;;4.80;;
41719;SDS011;27405;53.316;-6.294;2023-05-29T02:36:35;21.20;;;4.25;;
41719;SDS011;27405;53.316;-6.294;2023-05-29T02:39:02;23.95;;;4.93;;
41719;SDS011;27405;53.316;-6.294;2023-05-29T02:41:28;24.23;;;4.22;;
41719;SDS011;27405;53.316;-6.294;2023-05-29T02:43:54;27.75;;;4.65;;
41719;SDS011;27405;53.316;-6.294;2023-05-29T02:46:21;23.88;;;4.10;;
41719;SDS011;27405;53.316;-6.294;2023-05-29T02:48:47;25.65;;;4.25;;
41719;SDS011;27405;53.316;-6.294;2023-05-29T02:51:13;20.50;;;4.40;;
41719;SDS011;27405;53.316;-6.294;2023-05-29T02:53:39;22.38;;;5.05;;
41719;SDS011;27405;53.316;-6.294;2023-05-29T02:56:07;21.40;;;4.50;;
41719;SDS011;27405;53.316;-6.294;2023-05-29T02:58:34;25.65;;;4.88;;
41719;SDS011;27405;53.316;-6.294;2023-05-29T03:01:01;25.05;;;4.80;;
41719;SDS011;27405;53.316;-6.294;2023-05-29T03:03:29;27.83;;;5.63;;
41719;SDS011;27405;53.316;-6.294;2023-05-29T03:05:55;28.77;;;4.35;;
41719;SDS011;27405;53.316;-6.294;2023-05-29T03:08:20;22.15;;;4.35;;
41719;SDS011;27405;53.316;-6.294;2023-05-29T03:10:46;23.90;;;5.20;;
41719;SDS011;27405;53.316;-6.294;2023-05-29T03:13:12;24.55;;;5.13;;
41719;SDS011;27405;53.316;-6.294;2023-05-29T03:15:38;18.77;;;4.60;;
41719;SDS011;27405;53.316;-6.294;2023-05-29T03:18:04;23.48;;;4.38;;
41719;SDS011;27405;53.316;-6.294;2023-05-29T03:20:29;24.58;;;4.45;;
41719;SDS011;27405;53.316;-6.294;2023-05-29T03:22:55;18.00;;;4.65;;
41719;SDS011;27405;53.316;-6.294;2023-05-29T03:25:22;20.63;;;4.95;;
41719;SDS011;27405;53.316;-6.294;2023-05-29T03:27:47;25.38;;;5.63;;
41719;SDS011;27405;53.316;-6.294;2023-05-29T03:30:13;19.23;;;4.50;;
41719;SDS011;27405;53.316;-6.294;2023-05-29T03:32:39;29.92;;;4.70;;
41719;SDS011;27405;53.316;-6.294;2023-05-29T03:35:05;23.33;;;4.57;;
41719;SDS011;27405;53.316;-6.294;2023-05-29T03:37:31;19.55;;;4.47;;
41719;SDS011;27405;53.316;-6.294;2023-05-29T03:39:57;19.00;;;4.53;;
41719;SDS011;27405;53.316;-6.294;2023-05-29T03:42:22;24.08;;;4.57;;
41719;SDS011;27405;53.316;-6.294;2023-05-29T03:44:48;22.33;;;4.07;;
41719;SDS011;27405;53.316;-6.294;2023-05-29T03:47:14;20.83;;;4.45;;
41719;SDS011;27405;53.316;-6.294;2023-05-29T03:49:39;24.90;;;5.15;;
41719;SDS011;27405;53.316;-6.294;2023-05-29T03:52:05;25.77;;;4.93;;
41719;SDS011;27405;53.316;-6.294;2023-05-29T03:54:31;23.83;;;4.95;;
41719;SDS011;27405;53.316;-6.294;2023-05-29T03:56:57;25.35;;;5.40;;
41719;SDS011;27405;53.316;-6.294;2023-05-29T03:59:23;22.90;;;4.70;;
41719;SDS011;27405;53.316;-6.294;2023-05-29T04:01:48;24.40;;;4.85;;
41719;SDS011;27405;53.316;-6.294;2023-05-29T04:04:14;20.70;;;4.30;;
41719;SDS011;27405;53.316;-6.294;2023-05-29T04:06:40;22.30;;;4.75;;
41719;SDS011;27405;53.316;-6.294;2023-05-29T04:09:06;26.40;;;5.57;;
41719;SDS011;27405;53.316;-6.294;2023-05-29T04:11:34;27.23;;;4.97;;
41719;SDS011;27405;53.316;-6.294;2023-05-29T04:14:02;25.25;;;4.80;;
41719;SDS011;27405;53.316;-6.294;2023-05-29T04:16:28;24.65;;;4.25;;
41719;SDS011;27405;53.316;-6.294;2023-05-29T04:18:54;20.17;;;4.85;;
41719;SDS011;27405;53.316;-6.294;2023-05-29T04:21:20;29.98;;;5.63;;
41719;SDS011;27405;53.316;-6.294;2023-05-29T04:23:46;27.85;;;5.03;;
41719;SDS011;27405;53.316;-6.294;2023-05-29T04:26:12;25.13;;;4.78;;
41719;SDS011;27405;53.316;-6.294;2023-05-29T04:28:38;27.75;;;5.35;;
41719;SDS011;27405;53.316;-6.294;2023-05-29T04:31:04;23.67;;;5.13;;
41719;SDS011;27405;53.316;-6.294;2023-05-29T04:33:33;28.92;;;5.47;;
41719;SDS011;27405;53.316;-6.294;2023-05-29T04:36:01;25.27;;;5.25;;
41719;SDS011;27405;53.316;-6.294;2023-05-29T04:38:28;22.02;;;5.05;;
41719;SDS011;27405;53.316;-6.294;2023-05-29T04:40:54;29.33;;;5.10;;
41719;SDS011;27405;53.316;-6.294;2023-05-29T04:43:22;25.00;;;5.28;;
41719;SDS011;27405;53.316;-6.294;2023-05-29T04:48:17;27.13;;;4.80;;
41719;SDS011;27405;53.316;-6.294;2023-05-29T04:50:43;18.35;;;4.88;;
41719;SDS011;27405;53.316;-6.294;2023-05-29T04:53:09;25.20;;;4.93;;
41719;SDS011;27405;53.316;-6.294;2023-05-29T04:55:35;19.95;;;5.05;;
41719;SDS011;27405;53.316;-6.294;2023-05-29T04:58:01;30.55;;;6.03;;
41719;SDS011;27405;53.316;-6.294;2023-05-29T05:00:27;25.00;;;5.20;;
41719;SDS011;27405;53.316;-6.294;2023-05-29T05:02:53;28.98;;;5.50;;
41719;SDS011;27405;53.316;-6.294;2023-05-29T05:05:20;27.15;;;5.05;;
41719;SDS011;27405;53.316;-6.294;2023-05-29T05:07:46;25.35;;;5.13;;
41719;SDS011;27405;53.316;-6.294;2023-05-29T05:10:11;26.63;;;4.90;;
41719;SDS011;27405;53.316;-6.294;2023-05-29T05:12:37;22.02;;;5.22;;
41719;SDS011;27405;53.316;-6.294;2023-05-29T05:15:03;29.88;;;5.47;;
41719;SDS011;27405;53.316;-6.294;2023-05-29T05:17:30;28.80;;;5.50;;
41719;SDS011;27405;53.316;-6.294;2023-05-29T05:19:55;29.55;;;5.57;;
41719;SDS011;27405;53.316;-6.294;2023-05-29T05:22:21;30.30;;;5.55;;
41719;SDS011;27405;53.316;-6.294;2023-05-29T05:24:47;24.65;;;5.32;;
41719;SDS011;27405;53.316;-6.294;2023-05-29T05:27:12;23.65;;;5.20;;
41719;SDS011;27405;53.316;-6.294;2023-05-29T05:29:38;23.77;;;5.07;;
41719;SDS011;27405;53.316;-6.294;2023-05-29T05:32:04;26.35;;;5.13;;
41719;SDS011;27405;53.316;-6.294;2023-05-29T05:34:30;24.77;;;4.97;;
41719;SDS011;27405;53.316;-6.294;2023-05-29T05:36:56;26.85;;;5.45;;
41719;SDS011;27405;53.316;-6.294;2023-05-29T05:39:22;28.02;;;5.28;;
41719;SDS011;27405;53.316;-6.294;2023-05-29T05:41:47;24.05;;;4.97;;
41719;SDS011;27405;53.316;-6.294;2023-05-29T05:44:13;24.23;;;5.40;;
41719;SDS011;27405;53.316;-6.294;2023-05-29T05:46:39;28.25;;;5.72;;
41719;SDS011;27405;53.316;-6.294;2023-05-29T05:49:04;22.92;;;4.95;;
41719;SDS011;27405;53.316;-6.294;2023-05-29T05:51:30;30.88;;;6.88;;
41719;SDS011;27405;53.316;-6.294;2023-05-29T05:53:56;30.48;;;6.03;;
41719;SDS011;27405;53.316;-6.294;2023-05-29T05:56:21;29.40;;;5.78;;
41719;SDS011;27405;53.316;-6.294;2023-05-29T05:58:47;25.15;;;5.43;;
41719;SDS011;27405;53.316;-6.294;2023-05-29T06:01:15;36.33;;;7.25;;
41719;SDS011;27405;53.316;-6.294;2023-05-29T06:03:40;33.42;;;6.82;;
41719;SDS011;27405;53.316;-6.294;2023-05-29T06:06:06;27.17;;;6.25;;
41719;SDS011;27405;53.316;-6.294;2023-05-29T06:08:33;27.98;;;6.30;;
41719;SDS011;27405;53.316;-6.294;2023-05-29T06:10:59;31.85;;;6.78;;
41719;SDS011;27405;53.316;-6.294;2023-05-29T06:13:25;29.25;;;5.80;;
41719;SDS011;27405;53.316;-6.294;2023-05-29T06:15:51;29.45;;;7.07;;
41719;SDS011;27405;53.316;-6.294;2023-05-29T06:18:16;32.70;;;6.68;;
41719;SDS011;27405;53.316;-6.294;2023-05-29T06:20:42;31.38;;;7.45;;
41719;SDS011;27405;53.316;-6.294;2023-05-29T06:23:08;31.98;;;8.40;;
41719;SDS011;27405;53.316;-6.294;2023-05-29T06:25:33;31.48;;;7.65;;
41719;SDS011;27405;53.316;-6.294;2023-05-29T06:28:02;31.65;;;8.23;;
41719;SDS011;27405;53.316;-6.294;2023-05-29T06:30:30;30.48;;;8.52;;
41719;SDS011;27405;53.316;-6.294;2023-05-29T06:32:56;31.20;;;7.65;;
41719;SDS011;27405;53.316;-6.294;2023-05-29T06:35:22;29.77;;;8.43;;
41719;SDS011;27405;53.316;-6.294;2023-05-29T06:37:48;28.63;;;7.93;;
41719;SDS011;27405;53.316;-6.294;2023-05-29T06:40:13;29.70;;;8.40;;
41719;SDS011;27405;53.316;-6.294;2023-05-29T06:42:40;33.65;;;7.68;;
41719;SDS011;27405;53.316;-6.294;2023-05-29T06:45:09;28.38;;;7.45;;
41719;SDS011;27405;53.316;-6.294;2023-05-29T06:50:04;23.88;;;6.28;;
41719;SDS011;27405;53.316;-6.294;2023-05-29T06:52:31;27.52;;;7.18;;
41719;SDS011;27405;53.316;-6.294;2023-05-29T06:54:56;27.20;;;7.53;;
41719;SDS011;27405;53.316;-6.294;2023-05-29T06:57:22;26.17;;;7.20;;
41719;SDS011;27405;53.316;-6.294;2023-05-29T06:59:47;30.65;;;7.68;;
41719;SDS011;27405;53.316;-6.294;2023-05-29T07:02:13;24.17;;;6.63;;
41719;SDS011;27405;53.316;-6.294;2023-05-29T07:04:39;29.50;;;7.38;;
41719;SDS011;27405;53.316;-6.294;2023-05-29T07:07:04;24.77;;;6.88;;
41719;SDS011;27405;53.316;-6.294;2023-05-29T07:09:30;28.30;;;7.28;;
41719;SDS011;27405;53.316;-6.294;2023-05-29T07:11:56;24.90;;;7.40;;
41719;SDS011;27405;53.316;-6.294;2023-05-29T07:14:21;30.88;;;7.60;;
41719;SDS011;27405;53.316;-6.294;2023-05-29T07:16:47;23.45;;;7.22;;
41719;SDS011;27405;53.316;-6.294;2023-05-29T07:19:13;29.80;;;7.20;;
41719;SDS011;27405;53.316;-6.294;2023-05-29T07:21:39;27.60;;;7.60;;
41719;SDS011;27405;53.316;-6.294;2023-05-29T07:24:04;27.55;;;7.35;;
41719;SDS011;27405;53.316;-6.294;2023-05-29T07:26:30;30.75;;;8.13;;
41719;SDS011;27405;53.316;-6.294;2023-05-29T07:28:57;26.02;;;7.30;;
41719;SDS011;27405;53.316;-6.294;2023-05-29T07:31:23;28.73;;;7.30;;
41719;SDS011;27405;53.316;-6.294;2023-05-29T07:33:48;25.88;;;7.78;;
41719;SDS011;27405;53.316;-6.294;2023-05-29T07:36:17;25.25;;;7.53;;
41719;SDS011;27405;53.316;-6.294;2023-05-29T07:38:43;21.52;;;6.82;;
41719;SDS011;27405;53.316;-6.294;2023-05-29T07:41:09;26.17;;;7.28;;
41719;SDS011;27405;53.316;-6.294;2023-05-29T07:43:35;21.13;;;7.03;;
41719;SDS011;27405;53.316;-6.294;2023-05-29T07:46:00;26.33;;;6.90;;
41719;SDS011;27405;53.316;-6.294;2023-05-29T07:48:26;25.73;;;7.72;;
41719;SDS011;27405;53.316;-6.294;2023-05-29T07:50:52;29.85;;;7.78;;
41719;SDS011;27405;53.316;-6.294;2023-05-29T07:53:17;32.58;;;8.05;;
41719;SDS011;27405;53.316;-6.294;2023-05-29T07:55:43;25.75;;;7.28;;
41719;SDS011;27405;53.316;-6.294;2023-05-29T07:58:09;23.58;;;6.80;;
41719;SDS011;27405;53.316;-6.294;2023-05-29T08:00:36;31.33;;;7.47;;
41719;SDS011;27405;53.316;-6.294;2023-05-29T08:03:03;26.27;;;6.85;;
41719;SDS011;27405;53.316;-6.294;2023-05-29T08:05:30;21.42;;;7.15;;
41719;SDS011;27405;53.316;-6.294;2023-05-29T08:07:56;24.15;;;6.60;;
41719;SDS011;27405;53.316;-6.294;2023-05-29T08:10:24;25.83;;;6.90;;
41719;SDS011;27405;53.316;-6.294;2023-05-29T08:12:50;21.85;;;6.30;;
41719;SDS011;27405;53.316;-6.294;2023-05-29T08:15:17;24.83;;;6.82;;
41719;SDS011;27405;53.316;-6.294;2023-05-29T08:17:43;24.77;;;6.22;;
41719;SDS011;27405;53.316;-6.294;2023-05-29T08:20:09;25.52;;;6.50;;
41719;SDS011;27405;53.316;-6.294;2023-05-29T08:22:35;24.67;;;6.93;;
41719;SDS011;27405;53.316;-6.294;2023-05-29T08:25:01;28.40;;;6.97;;
41719;SDS011;27405;53.316;-6.294;2023-05-29T08:27:26;25.35;;;7.07;;
41719;SDS011;27405;53.316;-6.294;2023-05-29T08:29:52;25.30;;;6.88;;
41719;SDS011;27405;53.316;-6.294;2023-05-29T08:32:19;28.23;;;7.57;;
41719;SDS011;27405;53.316;-6.294;2023-05-29T08:34:46;26.33;;;6.47;;
41719;SDS011;27405;53.316;-6.294;2023-05-29T08:37:11;20.52;;;6.28;;
41719;SDS011;27405;53.316;-6.294;2023-05-29T08:39:38;24.10;;;6.43;;
41719;SDS011;27405;53.316;-6.294;2023-05-29T08:42:04;18.10;;;5.18;;
41719;SDS011;27405;53.316;-6.294;2023-05-29T08:44:33;24.35;;;6.10;;
41719;SDS011;27405;53.316;-6.294;2023-05-29T08:47:03;25.30;;;5.85;;
41719;SDS011;27405;53.316;-6.294;2023-05-29T08:49:38;21.95;;;6.05;;
41719;SDS011;27405;53.316;-6.294;2023-05-29T08:52:16;25.63;;;5.63;;
41719;SDS011;27405;53.316;-6.294;2023-05-29T08:54:44;25.27;;;5.32;;
41719;SDS011;27405;53.316;-6.294;2023-05-29T08:57:13;20.10;;;5.43;;
41719;SDS011;27405;53.316;-6.294;2023-05-29T08:59:42;19.52;;;5.47;;
41719;SDS011;27405;53.316;-6.294;2023-05-29T09:02:10;20.45;;;5.80;;
41719;SDS011;27405;53.316;-6.294;2023-05-29T09:04:37;18.08;;;4.80;;
41719;SDS011;27405;53.316;-6.294;2023-05-29T09:07:04;19.90;;;5.13;;
41719;SDS011;27405;53.316;-6.294;2023-05-29T09:09:33;25.25;;;5.68;;
41719;SDS011;27405;53.316;-6.294;2023-05-29T09:11:59;25.05;;;5.22;;
41719;SDS011;27405;53.316;-6.294;2023-05-29T09:14:38;18.88;;;5.55;;
41719;SDS011;27405;53.316;-6.294;2023-05-29T09:17:06;18.65;;;4.25;;
41719;SDS011;27405;53.316;-6.294;2023-05-29T09:19:33;18.20;;;4.55;;
41719;SDS011;27405;53.316;-6.294;2023-05-29T09:22:04;21.83;;;4.40;;
41719;SDS011;27405;53.316;-6.294;2023-05-29T09:24:34;18.92;;;4.50;;
41719;SDS011;27405;53.316;-6.294;2023-05-29T09:27:01;18.60;;;3.92;;
41719;SDS011;27405;53.316;-6.294;2023-05-29T09:29:32;19.17;;;4.30;;
41719;SDS011;27405;53.316;-6.294;2023-05-29T09:34:24;19.63;;;4.20;;
41719;SDS011;27405;53.316;-6.294;2023-05-29T09:36:53;18.83;;;4.00;;
41719;SDS011;27405;53.316;-6.294;2023-05-29T09:39:27;24.52;;;4.53;;
41719;SDS011;27405;53.316;-6.294;2023-05-29T09:41:53;19.27;;;4.20;;
41719;SDS011;27405;53.316;-6.294;2023-05-29T09:44:19;18.08;;;4.22;;
41719;SDS011;27405;53.316;-6.294;2023-05-29T09:46:44;18.77;;;4.35;;
41719;SDS011;27405;53.316;-6.294;2023-05-29T09:49:14;24.27;;;4.70;;
41719;SDS011;27405;53.316;-6.294;2023-05-29T09:51:41;18.98;;;4.25;;
41719;SDS011;27405;53.316;-6.294;2023-05-29T09:54:16;18.48;;;4.25;;
41719;SDS011;27405;53.316;-6.294;2023-05-29T09:56:42;16.92;;;3.88;;
41719;SDS011;27405;53.316;-6.294;2023-05-29T09:59:12;20.02;;;4.15;;
41719;SDS011;27405;53.316;-6.294;2023-05-29T10:01:42;18.50;;;4.03;;
41719;SDS011;27405;53.316;-6.294;2023-05-29T10:04:11;13.75;;;3.80;;
41719;SDS011;27405;53.316;-6.294;2023-05-29T10:06:38;19.20;;;4.30;;
41719;SDS011;27405;53.316;-6.294;2023-05-29T10:09:09;18.33;;;4.07;;
41719;SDS011;27405;53.316;-6.294;2023-05-29T10:11:37;20.88;;;4.55;;
41719;SDS011;27405;53.316;-6.294;2023-05-29T10:14:06;19.10;;;4.20;;
41719;SDS011;27405;53.316;-6.294;2023-05-29T10:16:36;20.48;;;4.22;;
41719;SDS011;27405;53.316;-6.294;2023-05-29T10:19:06;19.40;;;4.32;;
41719;SDS011;27405;53.316;-6.294;2023-05-29T10:21:37;16.30;;;3.95;;
41719;SDS011;27405;53.316;-6.294;2023-05-29T10:24:06;17.48;;;3.70;;
41719;SDS011;27405;53.316;-6.294;2023-05-29T10:26:34;19.30;;;4.15;;
41719;SDS011;27405;53.316;-6.294;2023-05-29T10:32:00;16.60;;;3.97;;
41719;SDS011;27405;53.316;-6.294;2023-05-29T10:35:09;22.90;;;4.20;;
41719;SDS011;27405;53.316;-6.294;2023-05-29T10:37:47;19.27;;;4.13;;
41719;SDS011;27405;53.316;-6.294;2023-05-29T10:40:35;15.70;;;3.95;;
41719;SDS011;27405;53.316;-6.294;2023-05-29T10:43:00;14.13;;;3.47;;
41719;SDS011;27405;53.316;-6.294;2023-05-29T10:48:40;12.57;;;3.65;;
41719;SDS011;27405;53.316;-6.294;2023-05-29T10:50:53;18.83;;;3.70;;
41719;SDS011;27405;53.316;-6.294;2023-05-29T10:53:26;16.70;;;3.55;;
41719;SDS011;27405;53.316;-6.294;2023-05-29T10:55:56;17.60;;;4.05;;
41719;SDS011;27405;53.316;-6.294;2023-05-29T10:58:24;19.70;;;3.60;;
41719;SDS011;27405;53.316;-6.294;2023-05-29T11:00:51;16.90;;;3.97;;
41719;SDS011;27405;53.316;-6.294;2023-05-29T11:03:29;20.42;;;4.25;;
41719;SDS011;27405;53.316;-6.294;2023-05-29T11:06:06;18.85;;;3.20;;
41719;SDS011;27405;53.316;-6.294;2023-05-29T11:08:43;17.17;;;3.58;;
41719;SDS011;27405;53.316;-6.294;2023-05-29T11:11:13;14.48;;;3.60;;
41719;SDS011;27405;53.316;-6.294;2023-05-29T11:13:39;17.63;;;3.80;;
41719;SDS011;27405;53.316;-6.294;2023-05-29T11:16:10;18.88;;;4.15;;
41719;SDS011;27405;53.316;-6.294;2023-05-29T11:18:46;18.10;;;3.47;;
41719;SDS011;27405;53.316;-6.294;2023-05-29T11:24:03;16.45;;;3.63;;
41719;SDS011;27405;53.316;-6.294;2023-05-29T11:26:32;17.27;;;3.78;;
41719;SDS011;27405;53.316;-6.294;2023-05-29T11:29:03;17.73;;;4.03;;
41719;SDS011;27405;53.316;-6.294;2023-05-29T11:31:35;17.02;;;3.63;;
41719;SDS011;27405;53.316;-6.294;2023-05-29T11:34:04;15.18;;;3.78;;
41719;SDS011;27405;53.316;-6.294;2023-05-29T11:36:34;13.07;;;3.38;;
41719;SDS011;27405;53.316;-6.294;2023-05-29T11:39:03;14.10;;;3.50;;
41719;SDS011;27405;53.316;-6.294;2023-05-29T11:41:29;14.68;;;3.53;;
41719;SDS011;27405;53.316;-6.294;2023-05-29T11:43:58;13.00;;;3.35;;
41719;SDS011;27405;53.316;-6.294;2023-05-29T11:46:27;16.27;;;3.90;;
41719;SDS011;27405;53.316;-6.294;2023-05-29T11:51:21;16.30;;;3.47;;
41719;SDS011;27405;53.316;-6.294;2023-05-29T11:53:47;13.35;;;3.90;;
41719;SDS011;27405;53.316;-6.294;2023-05-29T11:56:14;15.95;;;3.53;;
41719;SDS011;27405;53.316;-6.294;2023-05-29T11:58:40;15.77;;;3.42;;
41719;SDS011;27405;53.316;-6.294;2023-05-29T12:01:06;16.20;;;3.40;;
41719;SDS011;27405;53.316;-6.294;2023-05-29T12:03:51;14.18;;;3.35;;
41719;SDS011;27405;53.316;-6.294;2023-05-29T12:06:34;19.70;;;3.88;;
41719;SDS011;27405;53.316;-6.294;2023-05-29T12:09:02;14.30;;;3.35;;
41719;SDS011;27405;53.316;-6.294;2023-05-29T12:11:29;15.50;;;3.60;;
41719;SDS011;27405;53.316;-6.294;2023-05-29T12:13:56;14.77;;;3.55;;
41719;SDS011;27405;53.316;-6.294;2023-05-29T12:16:26;11.68;;;3.10;;
41719;SDS011;27405;53.316;-6.294;2023-05-29T12:18:53;12.82;;;3.65;;
41719;SDS011;27405;53.316;-6.294;2023-05-29T12:21:20;19.02;;;3.75;;
41719;SDS011;27405;53.316;-6.294;2023-05-29T12:23:47;16.83;;;3.45;;
41719;SDS011;27405;53.316;-6.294;2023-05-29T12:26:13;16.05;;;4.15;;
41719;SDS011;27405;53.316;-6.294;2023-05-29T12:28:46;14.95;;;3.63;;
41719;SDS011;27405;53.316;-6.294;2023-05-29T12:31:13;16.83;;;3.95;;
41719;SDS011;27405;53.316;-6.294;2023-05-29T12:33:42;12.20;;;3.42;;
41719;SDS011;27405;53.316;-6.294;2023-05-29T12:36:08;15.20;;;3.88;;
41719;SDS011;27405;53.316;-6.294;2023-05-29T12:38:48;16.67;;;3.70;;
41719;SDS011;27405;53.316;-6.294;2023-05-29T12:41:22;18.83;;;4.00;;
41719;SDS011;27405;53.316;-6.294;2023-05-29T12:43:55;18.42;;;3.65;;
41719;SDS011;27405;53.316;-6.294;2023-05-29T12:46:22;15.65;;;4.40;;
41719;SDS011;27405;53.316;-6.294;2023-05-29T12:48:48;15.35;;;4.00;;
41719;SDS011;27405;53.316;-6.294;2023-05-29T12:51:15;16.63;;;3.85;;
41719;SDS011;27405;53.316;-6.294;2023-05-29T12:53:43;19.52;;;4.63;;
41719;SDS011;27405;53.316;-6.294;2023-05-29T12:56:08;16.40;;;4.10;;
41719;SDS011;27405;53.316;-6.294;2023-05-29T12:58:34;16.45;;;3.80;;
41719;SDS011;27405;53.316;-6.294;2023-05-29T13:01:00;18.05;;;3.97;;
41719;SDS011;27405;53.316;-6.294;2023-05-29T13:03:27;18.70;;;4.45;;
41719;SDS011;27405;53.316;-6.294;2023-05-29T13:05:52;21.42;;;4.72;;
41719;SDS011;27405;53.316;-6.294;2023-05-29T13:08:18;21.15;;;4.22;;
41719;SDS011;27405;53.316;-6.294;2023-05-29T13:10:45;19.58;;;4.47;;
41719;SDS011;27405;53.316;-6.294;2023-05-29T13:13:12;17.77;;;4.30;;
41719;SDS011;27405;53.316;-6.294;2023-05-29T13:15:38;19.13;;;4.97;;
41719;SDS011;27405;53.316;-6.294;2023-05-29T13:18:05;16.90;;;4.35;;
41719;SDS011;27405;53.316;-6.294;2023-05-29T13:20:31;17.33;;;4.32;;
41719;SDS011;27405;53.316;-6.294;2023-05-29T13:22:57;14.40;;;3.97;;
41719;SDS011;27405;53.316;-6.294;2023-05-29T13:25:23;17.40;;;4.18;;
41719;SDS011;27405;53.316;-6.294;2023-05-29T13:27:50;16.15;;;3.78;;
41719;SDS011;27405;53.316;-6.294;2023-05-29T13:30:16;19.95;;;4.47;;
41719;SDS011;27405;53.316;-6.294;2023-05-29T13:32:42;21.58;;;4.43;;
41719;SDS011;27405;53.316;-6.294;2023-05-29T13:35:08;17.90;;;4.20;;
41719;SDS011;27405;53.316;-6.294;2023-05-29T13:37:37;17.55;;;4.57;;
41719;SDS011;27405;53.316;-6.294;2023-05-29T13:40:04;15.75;;;3.88;;
41719;SDS011;27405;53.316;-6.294;2023-05-29T13:42:30;21.08;;;4.35;;
41719;SDS011;27405;53.316;-6.294;2023-05-29T13:44:56;21.92;;;4.25;;
41719;SDS011;27405;53.316;-6.294;2023-05-29T13:47:22;16.90;;;4.60;;
41719;SDS011;27405;53.316;-6.294;2023-05-29T13:49:48;21.25;;;4.18;;
41719;SDS011;27405;53.316;-6.294;2023-05-29T13:52:13;24.48;;;4.80;;
41719;SDS011;27405;53.316;-6.294;2023-05-29T13:54:41;16.10;;;4.25;;
41719;SDS011;27405;53.316;-6.294;2023-05-29T13:57:07;16.98;;;4.07;;
41719;SDS011;27405;53.316;-6.294;2023-05-29T13:59:33;19.50;;;4.63;;
41719;SDS011;27405;53.316;-6.294;2023-05-29T14:01:59;23.17;;;4.80;;
41719;SDS011;27405;53.316;-6.294;2023-05-29T14:04:25;20.67;;;4.63;;
41719;SDS011;27405;53.316;-6.294;2023-05-29T14:06:52;18.98;;;4.65;;
41719;SDS011;27405;53.316;-6.294;2023-05-29T14:09:18;22.10;;;4.63;;
41719;SDS011;27405;53.316;-6.294;2023-05-29T14:11:52;16.35;;;4.18;;
41719;SDS011;27405;53.316;-6.294;2023-05-29T14:14:18;20.75;;;4.68;;
41719;SDS011;27405;53.316;-6.294;2023-05-29T14:16:44;21.70;;;4.47;;
41719;SDS011;27405;53.316;-6.294;2023-05-29T14:19:10;18.38;;;4.60;;
41719;SDS011;27405;53.316;-6.294;2023-05-29T14:21:35;24.92;;;4.50;;
41719;SDS011;27405;53.316;-6.294;2023-05-29T14:24:01;21.10;;;4.38;;
41719;SDS011;27405;53.316;-6.294;2023-05-29T14:26:27;17.83;;;5.00;;
41719;SDS011;27405;53.316;-6.294;2023-05-29T14:28:52;23.17;;;4.35;;
41719;SDS011;27405;53.316;-6.294;2023-05-29T14:31:18;14.70;;;4.00;;
41719;SDS011;27405;53.316;-6.294;2023-05-29T14:33:44;18.13;;;4.20;;
41719;SDS011;27405;53.316;-6.294;2023-05-29T14:36:09;22.77;;;5.28;;
41719;SDS011;27405;53.316;-6.294;2023-05-29T14:38:35;16.75;;;4.28;;
41719;SDS011;27405;53.316;-6.294;2023-05-29T14:41:01;16.80;;;4.35;;
41719;SDS011;27405;53.316;-6.294;2023-05-29T14:43:27;14.52;;;3.95;;
41719;SDS011;27405;53.316;-6.294;2023-05-29T14:45:53;17.70;;;4.18;;
41719;SDS011;27405;53.316;-6.294;2023-05-29T14:48:18;17.10;;;4.00;;